Time;durP1;ratioP1;P1;durP2;ratioP2;P2;SDS_P1;SDS_P2;PMS_P1;PMS_P2;Temp;Humidity;BMP_temperature;BMP_pressure;BME280_temperature;BME280_humidity;BME280_pressure;Samples;Min_cycle;Max_cycle;Signal;HPM_P1;HPM_P2
2023/04/18 00:00:14;;;;;;;42.33;29.50;;;8.10;99.90;;;;;;5024171;28;39181;-88
2023/04/18 00:02:42;;;;;;;47.23;31.37;;;8.10;99.90;;;;;;5035510;28;37171;-86
2023/04/18 00:05:09;;;;;;;51.57;32.37;;;8.10;99.90;;;;;;5029975;28;37569;-85
2023/04/18 00:07:36;;;;;;;49.77;31.23;;;8.10;99.90;;;;;;5039085;28;37317;-85
2023/04/18 00:10:04;;;;;;;52.10;32.40;;;8.10;99.90;;;;;;5041867;28;37890;-84
2023/04/18 00:12:30;;;;;;;47.60;31.33;;;8.10;99.90;;;;;;4989181;28;47671;-84
2023/04/18 00:14:57;;;;;;;40.77;29.77;;;8.00;99.90;;;;;;5035784;28;38721;-85
2023/04/18 00:17:27;;;;;;;48.83;32.57;;;8.00;99.90;;;;;;5028378;28;38884;-89
2023/04/18 00:19:55;;;;;;;43.90;30.37;;;8.00;99.90;;;;;;5034115;28;36630;-89
2023/04/18 00:22:21;;;;;;;49.30;31.30;;;8.00;99.90;;;;;;5030710;28;36512;-91
2023/04/18 00:24:48;;;;;;;48.63;31.10;;;8.00;99.90;;;;;;5032518;28;37352;-86
2023/04/18 00:27:16;;;;;;;48.90;31.13;;;8.00;99.90;;;;;;5048366;28;38366;-85
2023/04/18 00:29:42;;;;;;;52.43;32.10;;;7.90;99.90;;;;;;5031532;28;38372;-90
2023/04/18 00:32:09;;;;;;;48.07;31.90;;;8.00;99.90;;;;;;5027255;28;36282;-92
2023/04/18 00:34:35;;;;;;;46.90;30.70;;;8.10;99.90;;;;;;5030833;28;37635;-88
2023/04/18 00:37:01;;;;;;;49.50;30.70;;;8.10;99.90;;;;;;5033923;28;38458;-84
2023/04/18 00:39:27;;;;;;;50.00;31.27;;;8.00;99.90;;;;;;5032475;28;46538;-90
2023/04/18 00:41:53;;;;;;;48.37;32.27;;;8.00;99.90;;;;;;5031635;28;38310;-86
2023/04/18 00:44:19;;;;;;;50.40;32.73;;;8.00;99.90;;;;;;5026278;28;39550;-84
2023/04/18 00:46:46;;;;;;;46.63;29.53;;;7.90;99.90;;;;;;5026679;28;37153;-85
2023/04/18 00:49:12;;;;;;;47.50;30.80;;;8.00;99.90;;;;;;5040597;28;39348;-87
2023/04/18 00:51:39;;;;;;;48.10;29.20;;;8.00;99.90;;;;;;5032392;28;36732;-83
2023/04/18 00:54:06;;;;;;;43.23;28.07;;;8.00;99.90;;;;;;5033949;28;38736;-83
2023/04/18 00:56:34;;;;;;;42.97;28.03;;;7.90;99.90;;;;;;5037697;28;39470;-83
2023/04/18 00:59:01;;;;;;;44.23;28.83;;;8.00;99.90;;;;;;5032321;28;38042;-90
2023/04/18 01:01:38;;;;;;;44.70;28.97;;;8.00;99.90;;;;;;5514053;22;35892;-78
2023/04/18 01:04:06;;;;;;;43.10;27.60;;;8.00;99.90;;;;;;4824466;28;38277;-80
2023/04/18 01:06:33;;;;;;;40.03;28.10;;;8.00;99.90;;;;;;4997758;28;38772;-80
2023/04/18 01:09:00;;;;;;;40.27;26.47;;;8.00;99.90;;;;;;4997228;28;38345;-81
2023/04/18 01:11:27;;;;;;;36.80;26.00;;;8.00;99.90;;;;;;5009335;28;46419;-80
2023/04/18 01:14:07;;;;;;;33.47;25.03;;;8.00;99.90;;;;;;4994521;28;37416;-81
2023/04/18 01:16:33;;;;;;;36.00;24.13;;;8.00;99.90;;;;;;4996288;28;47223;-81
2023/04/18 01:19:00;;;;;;;38.87;23.10;;;8.00;99.90;;;;;;4996963;28;38433;-79
2023/04/18 01:21:30;;;;;;;33.97;21.07;;;8.00;99.90;;;;;;5000496;28;48135;-80
2023/04/18 01:24:15;;;;;;;29.93;20.13;;;8.10;99.90;;;;;;4992683;28;37600;-79
2023/04/18 01:26:46;;;;;;;32.37;19.77;;;8.10;99.90;;;;;;4994869;28;48587;-80
2023/04/18 01:29:12;;;;;;;26.33;18.03;;;8.10;99.90;;;;;;4996180;28;37135;-80
2023/04/18 01:31:39;;;;;;;26.77;17.43;;;8.10;99.90;;;;;;4995449;28;36009;-80
2023/04/18 01:34:07;;;;;;;25.40;16.30;;;8.10;99.90;;;;;;4993983;28;39141;-80
2023/04/18 01:36:35;;;;;;;25.90;16.90;;;8.20;99.90;;;;;;4995815;28;37669;-80
2023/04/18 01:39:01;;;;;;;25.13;17.67;;;8.20;99.90;;;;;;5009556;28;38143;-80
2023/04/18 01:41:28;;;;;;;32.90;17.67;;;8.10;99.90;;;;;;4993584;28;48717;-80
2023/04/18 01:43:54;;;;;;;29.13;16.73;;;8.10;99.90;;;;;;4994905;28;39438;-80
2023/04/18 01:46:20;;;;;;;29.83;17.70;;;8.10;99.90;;;;;;4987374;28;40033;-80
2023/04/18 01:48:46;;;;;;;22.07;16.80;;;8.10;99.90;;;;;;5005718;28;38525;-80
2023/04/18 01:51:12;;;;;;;23.97;15.83;;;8.20;99.90;;;;;;4995130;28;37169;-80
2023/04/18 01:53:39;;;;;;;25.57;15.00;;;8.10;99.90;;;;;;4992640;28;38269;-80
2023/04/18 01:56:05;;;;;;;21.33;15.67;;;8.00;99.90;;;;;;4990825;28;37043;-80
2023/04/18 01:58:31;;;;;;;24.13;16.70;;;8.00;99.90;;;;;;4992275;28;36999;-79
2023/04/18 02:00:57;;;;;;;24.20;16.07;;;8.00;99.90;;;;;;4998416;28;37679;-79
2023/04/18 02:03:24;;;;;;;24.13;15.80;;;7.90;99.90;;;;;;4988392;28;40954;-79
2023/04/18 02:05:51;;;;;;;23.70;16.33;;;7.90;99.90;;;;;;4997139;28;37664;-79
2023/04/18 02:08:17;;;;;;;20.30;14.07;;;7.90;99.90;;;;;;4990955;28;37519;-82
2023/04/18 02:10:44;;;;;;;24.00;15.17;;;7.90;99.90;;;;;;4986383;28;37461;-80
2023/04/18 02:13:10;;;;;;;21.90;14.93;;;7.90;99.90;;;;;;4993805;28;37280;-80
2023/04/18 02:15:36;;;;;;;19.43;13.87;;;7.80;99.90;;;;;;4999074;28;38078;-80
2023/04/18 02:18:02;;;;;;;21.20;13.37;;;7.80;99.90;;;;;;4997148;28;37977;-79
2023/04/18 02:20:32;;;;;;;18.17;13.43;;;7.80;99.90;;;;;;4989687;28;35298;-80
2023/04/18 02:22:59;;;;;;;21.30;14.67;;;7.80;99.90;;;;;;4994228;28;38993;-80
2023/04/18 02:25:27;;;;;;;21.70;13.67;;;7.70;99.90;;;;;;4987955;28;38664;-80
2023/04/18 02:27:54;;;;;;;25.20;14.63;;;7.60;99.90;;;;;;4993712;28;37121;-79
2023/04/18 02:30:20;;;;;;;18.40;13.20;;;7.60;99.90;;;;;;4995349;28;37128;-79
2023/04/18 02:32:50;;;;;;;23.53;14.90;;;7.50;99.90;;;;;;4993266;28;37413;-80
2023/04/18 02:35:18;;;;;;;22.37;14.83;;;7.50;99.90;;;;;;4986566;28;38712;-79
2023/04/18 02:37:44;;;;;;;19.20;13.43;;;7.50;99.90;;;;;;5003929;28;37762;-79
2023/04/18 02:40:10;;;;;;;20.97;14.13;;;7.40;99.90;;;;;;4992953;28;36209;-79
2023/04/18 02:42:37;;;;;;;18.73;13.30;;;7.30;99.90;;;;;;4995550;28;37911;-79
2023/04/18 02:45:05;;;;;;;19.57;12.63;;;7.40;99.90;;;;;;4999254;28;37423;-78
2023/04/18 02:47:31;;;;;;;18.17;13.07;;;7.40;99.90;;;;;;4995257;28;48972;-79
2023/04/18 02:49:57;;;;;;;25.83;12.47;;;7.30;99.90;;;;;;4993487;28;36294;-79
2023/04/18 02:52:24;;;;;;;19.47;12.17;;;7.20;99.90;;;;;;5002055;28;37710;-79
2023/04/18 02:54:50;;;;;;;15.20;10.87;;;7.20;99.90;;;;;;4984580;28;38507;-79
2023/04/18 02:57:16;;;;;;;16.40;11.33;;;7.10;99.90;;;;;;4990032;28;38105;-79
2023/04/18 02:59:43;;;;;;;15.60;11.63;;;7.20;99.90;;;;;;5001473;28;36348;-79
2023/04/18 03:02:09;;;;;;;16.47;11.33;;;7.10;99.90;;;;;;4979496;28;38728;-78
2023/04/18 03:04:35;;;;;;;15.87;9.73;;;7.10;99.90;;;;;;4982323;28;38471;-79
2023/04/18 03:07:01;;;;;;;15.17;10.33;;;7.10;99.90;;;;;;4994183;28;39288;-79
2023/04/18 03:09:27;;;;;;;14.80;10.43;;;7.00;99.90;;;;;;5003415;28;49121;-79
2023/04/18 03:11:53;;;;;;;18.17;10.23;;;7.00;99.90;;;;;;4998323;28;38968;-79
2023/04/18 03:14:19;;;;;;;15.70;10.10;;;6.90;99.90;;;;;;4992442;28;36748;-79
2023/04/18 03:16:45;;;;;;;12.70;9.77;;;6.90;99.90;;;;;;4997713;28;38752;-80
2023/04/18 03:19:11;;;;;;;15.90;9.47;;;6.90;99.90;;;;;;5000479;28;39326;-79
2023/04/18 03:21:37;;;;;;;15.90;10.27;;;6.80;99.90;;;;;;4994908;28;39488;-78
2023/04/18 03:24:04;;;;;;;18.77;10.13;;;6.90;99.90;;;;;;4990114;28;39476;-79
2023/04/18 03:26:30;;;;;;;15.27;9.60;;;6.80;99.90;;;;;;4992310;28;37042;-79
2023/04/18 03:28:56;;;;;;;12.33;9.70;;;6.80;99.90;;;;;;4992204;28;37014;-79
2023/04/18 03:31:22;;;;;;;15.03;9.47;;;6.80;99.90;;;;;;4992031;28;37934;-79
2023/04/18 03:33:50;;;;;;;16.20;9.87;;;6.80;99.90;;;;;;4991049;28;38772;-79
2023/04/18 03:36:17;;;;;;;14.30;9.50;;;6.80;99.90;;;;;;4988826;28;37079;-79
2023/04/18 03:38:44;;;;;;;14.30;8.70;;;6.80;99.90;;;;;;4995568;28;37699;-79
2023/04/18 03:41:10;;;;;;;14.23;8.93;;;6.80;99.90;;;;;;4989955;28;38783;-79
2023/04/18 03:43:36;;;;;;;15.07;10.07;;;6.80;99.90;;;;;;4993363;28;38708;-79
2023/04/18 03:46:02;;;;;;;13.03;9.13;;;6.80;99.90;;;;;;4997125;28;37567;-79
2023/04/18 03:48:28;;;;;;;15.33;9.40;;;6.80;99.90;;;;;;4997553;28;38783;-79
2023/04/18 03:50:54;;;;;;;15.40;9.50;;;6.80;99.90;;;;;;4993898;28;37356;-79
2023/04/18 03:53:20;;;;;;;14.13;10.10;;;6.80;99.90;;;;;;4982923;28;38094;-80
2023/04/18 03:55:46;;;;;;;15.00;9.80;;;6.80;99.90;;;;;;4995203;28;36492;-80
2023/04/18 03:58:12;;;;;;;13.70;9.50;;;6.70;99.90;;;;;;4991555;28;36376;-79
2023/04/18 04:00:39;;;;;;;13.67;9.37;;;6.80;99.90;;;;;;4991694;28;39190;-80
2023/04/18 04:03:05;;;;;;;15.83;9.63;;;6.70;99.90;;;;;;4983536;28;37073;-80
2023/04/18 04:05:32;;;;;;;12.20;9.10;;;6.70;99.90;;;;;;4995252;28;36699;-81
2023/04/18 04:07:58;;;;;;;23.13;10.33;;;6.70;99.90;;;;;;4991908;28;36241;-80
2023/04/18 04:10:24;;;;;;;14.17;9.57;;;6.70;99.90;;;;;;4984337;28;37482;-81
2023/04/18 04:12:50;;;;;;;15.07;10.33;;;6.70;99.90;;;;;;4991854;28;39271;-81
2023/04/18 04:15:16;;;;;;;15.67;10.37;;;6.70;99.90;;;;;;4982161;28;39981;-80
2023/04/18 04:17:42;;;;;;;14.47;9.50;;;6.80;99.90;;;;;;4989399;28;37469;-80
2023/04/18 04:20:09;;;;;;;12.93;9.43;;;6.80;99.90;;;;;;4989102;28;39980;-80
2023/04/18 04:22:36;;;;;;;21.23;10.40;;;6.80;99.90;;;;;;4993112;28;38357;-81
2023/04/18 04:25:03;;;;;;;17.00;10.40;;;6.90;99.90;;;;;;4991217;28;38054;-80
2023/04/18 04:27:29;;;;;;;15.20;10.13;;;6.80;99.90;;;;;;4989680;28;48486;-79
2023/04/18 04:29:56;;;;;;;18.87;11.27;;;6.90;99.90;;;;;;4985168;28;37446;-80
2023/04/18 04:32:23;;;;;;;18.23;11.00;;;6.70;99.90;;;;;;4984778;28;37772;-80
2023/04/18 04:34:49;;;;;;;15.27;10.17;;;6.70;99.90;;;;;;4992483;28;36888;-80
2023/04/18 04:37:19;;;;;;;12.77;10.30;;;6.70;99.90;;;;;;4984277;28;38585;-80
2023/04/18 04:39:45;;;;;;;15.13;10.63;;;6.70;99.90;;;;;;4994559;28;37743;-80
2023/04/18 04:42:11;;;;;;;15.60;11.10;;;6.70;99.90;;;;;;4978854;28;38539;-80
2023/04/18 04:44:37;;;;;;;15.57;10.27;;;6.60;99.90;;;;;;4982011;28;37942;-80
2023/04/18 04:47:03;;;;;;;17.90;10.33;;;6.60;99.90;;;;;;4986336;28;37237;-79
2023/04/18 04:49:30;;;;;;;16.53;10.67;;;6.60;99.90;;;;;;4987083;28;37725;-80
2023/04/18 04:51:56;;;;;;;19.47;11.70;;;6.60;99.90;;;;;;4988393;28;38948;-80
2023/04/18 04:54:22;;;;;;;19.67;11.93;;;6.50;99.90;;;;;;4982792;28;38230;-80
2023/04/18 04:56:48;;;;;;;18.73;11.00;;;6.50;99.90;;;;;;4990072;28;35906;-81
2023/04/18 04:59:14;;;;;;;16.77;10.70;;;6.50;99.90;;;;;;4992521;28;37867;-80
2023/04/18 05:01:40;;;;;;;18.97;10.83;;;6.50;99.90;;;;;;4986072;28;38439;-80
2023/04/18 05:04:07;;;;;;;14.93;10.67;;;6.50;99.90;;;;;;4983333;28;38313;-80
2023/04/18 05:06:33;;;;;;;15.33;11.13;;;6.50;99.90;;;;;;4980255;28;38915;-80
2023/04/18 05:08:59;;;;;;;17.73;11.40;;;6.50;99.90;;;;;;4989777;28;38261;-80
2023/04/18 05:11:26;;;;;;;17.37;11.10;;;6.50;99.90;;;;;;4984500;28;38803;-80
2023/04/18 05:13:52;;;;;;;17.43;11.27;;;6.50;99.90;;;;;;5002780;28;38194;-79
2023/04/18 05:16:18;;;;;;;16.20;11.63;;;6.50;99.90;;;;;;4989546;28;36909;-80
2023/04/18 05:18:44;;;;;;;19.63;11.97;;;6.50;99.90;;;;;;4983547;28;39494;-80
2023/04/18 05:21:10;;;;;;;14.47;10.20;;;6.50;99.90;;;;;;4982554;28;38529;-80
2023/04/18 05:23:36;;;;;;;16.27;10.50;;;6.50;99.90;;;;;;4985037;28;38113;-80
2023/04/18 05:26:04;;;;;;;18.80;10.43;;;6.50;99.90;;;;;;4989772;28;37675;-79
2023/04/18 05:28:30;;;;;;;20.60;11.57;;;6.60;99.90;;;;;;4990828;28;39033;-78
2023/04/18 05:31:00;;;;;;;25.97;12.70;;;6.60;99.90;;;;;;4981577;28;38542;-79
2023/04/18 05:33:31;;;;;;;19.00;11.03;;;6.70;99.90;;;;;;4978852;28;38392;-77
2023/04/18 05:35:58;;;;;;;19.35;10.70;;;6.70;99.90;;;;;;4977828;28;36014;-79
2023/04/18 05:38:24;;;;;;;17.20;10.93;;;6.80;99.90;;;;;;4986524;28;37828;-79
2023/04/18 05:40:50;;;;;;;21.13;11.13;;;6.90;99.90;;;;;;4982006;28;37968;-79
2023/04/18 05:43:18;;;;;;;16.27;10.13;;;7.00;99.90;;;;;;4978675;28;39608;-78
2023/04/18 05:45:44;;;;;;;18.43;10.87;;;7.10;99.90;;;;;;4982949;28;37986;-78
2023/04/18 05:48:11;;;;;;;16.40;10.87;;;7.20;99.90;;;;;;4988745;28;38765;-79
2023/04/18 05:50:37;;;;;;;17.40;11.37;;;7.30;99.90;;;;;;4998805;28;38658;-79
2023/04/18 05:53:03;;;;;;;17.80;10.47;;;7.30;99.90;;;;;;4991490;28;38066;-78
2023/04/18 05:55:29;;;;;;;20.33;10.10;;;7.30;99.90;;;;;;4989670;28;35976;-77
2023/04/18 05:57:58;;;;;;;17.53;10.27;;;7.30;99.90;;;;;;4976265;28;37359;-78
2023/04/18 06:00:24;;;;;;;19.13;10.77;;;7.30;99.90;;;;;;4983089;28;37952;-77
2023/04/18 06:02:50;;;;;;;17.90;11.47;;;7.40;99.90;;;;;;4986811;28;38449;-78
2023/04/18 06:05:17;;;;;;;17.50;10.67;;;7.40;99.90;;;;;;4981753;28;36210;-77
2023/04/18 06:07:43;;;;;;;19.10;10.80;;;7.40;99.90;;;;;;4980482;28;37912;-79
2023/04/18 06:10:12;;;;;;;16.70;11.40;;;7.50;99.90;;;;;;4981569;28;38384;-78
2023/04/18 06:12:38;;;;;;;16.70;10.30;;;7.60;99.90;;;;;;4980883;28;38267;-77
2023/04/18 06:15:06;;;;;;;15.77;11.43;;;7.60;99.90;;;;;;4982369;28;37203;-78
2023/04/18 06:17:33;;;;;;;16.70;10.53;;;7.60;99.90;;;;;;4978878;28;38906;-77
2023/04/18 06:19:59;;;;;;;15.20;10.20;;;7.70;99.90;;;;;;4981046;28;37257;-77
2023/04/18 06:22:25;;;;;;;19.47;11.53;;;7.70;99.90;;;;;;4982325;28;38210;-77
2023/04/18 06:24:54;;;;;;;21.27;11.20;;;7.80;99.90;;;;;;4973542;28;35473;-77
2023/04/18 06:27:20;;;;;;;14.60;10.37;;;7.80;99.90;;;;;;4977591;28;36860;-77
2023/04/18 06:29:46;;;;;;;16.40;11.90;;;7.90;99.90;;;;;;4979868;28;37410;-74
2023/04/18 06:32:12;;;;;;;21.57;12.37;;;7.90;99.90;;;;;;4981530;28;39247;-76
2023/04/18 06:34:39;;;;;;;21.20;11.47;;;7.90;99.90;;;;;;4979105;28;20051;-75
2023/04/18 06:37:05;;;;;;;20.20;10.50;;;8.00;99.90;;;;;;4976976;28;38878;-75
2023/04/18 06:39:32;;;;;;;19.83;10.40;;;7.90;99.90;;;;;;4977410;28;38220;-75
2023/04/18 06:41:58;;;;;;;19.03;9.93;;;7.90;99.90;;;;;;4978110;28;37185;-73
2023/04/18 06:44:24;;;;;;;15.47;9.57;;;7.80;99.90;;;;;;4979483;28;35502;-74
2023/04/18 06:46:50;;;;;;;19.83;10.50;;;7.90;99.90;;;;;;4976972;28;39733;-75
2023/04/18 06:49:16;;;;;;;15.10;10.27;;;7.90;99.90;;;;;;4977108;28;37720;-78
2023/04/18 06:51:43;;;;;;;19.93;10.80;;;8.00;99.90;;;;;;4991554;28;37022;-78
2023/04/18 06:54:09;;;;;;;21.10;10.37;;;8.00;99.90;;;;;;4982295;28;37601;-78
2023/04/18 06:56:35;;;;;;;16.07;10.63;;;8.00;99.90;;;;;;4972931;28;38971;-77
2023/04/18 06:59:01;;;;;;;14.80;9.63;;;8.10;99.90;;;;;;4973482;28;37082;-78
2023/04/18 07:01:30;;;;;;;14.13;10.10;;;8.10;99.90;;;;;;4982729;28;38099;-77
2023/04/18 07:03:56;;;;;;;17.43;10.83;;;8.10;99.90;;;;;;4981789;28;37489;-77
2023/04/18 07:06:23;;;;;;;17.93;10.87;;;8.20;99.90;;;;;;4981372;28;38840;-77
2023/04/18 07:08:49;;;;;;;18.10;10.50;;;8.30;99.90;;;;;;4987051;28;37739;-77
2023/04/18 07:11:17;;;;;;;16.20;10.90;;;8.40;99.90;;;;;;4995403;28;36804;-78
2023/04/18 07:13:44;;;;;;;15.10;10.70;;;8.50;99.90;;;;;;4984401;28;37531;-77
2023/04/18 07:16:10;;;;;;;14.90;8.83;;;8.70;99.90;;;;;;4980670;28;37799;-76
2023/04/18 07:18:37;;;;;;;12.97;8.97;;;8.90;99.90;;;;;;4989046;28;38448;-76
2023/04/18 07:21:06;;;;;;;10.83;8.60;;;9.20;99.90;;;;;;4978616;28;37394;-74
2023/04/18 07:23:32;;;;;;;13.60;9.27;;;9.50;99.90;;;;;;4981587;28;36791;-75
2023/04/18 07:26:00;;;;;;;12.05;8.48;;;9.70;99.90;;;;;;4983195;28;38350;-76
2023/04/18 07:28:26;;;;;;;12.15;8.30;;;9.80;99.90;;;;;;4976870;28;38204;-76
2023/04/18 07:30:53;;;;;;;11.10;8.90;;;9.70;99.90;;;;;;4982738;28;37889;-76
2023/04/18 07:33:19;;;;;;;12.52;8.93;;;9.60;99.90;;;;;;4978052;28;37881;-74
2023/04/18 07:35:45;;;;;;;15.05;8.18;;;9.60;99.90;;;;;;4981597;28;38935;-76
2023/04/18 07:38:12;;;;;;;12.50;8.40;;;9.50;99.90;;;;;;4975106;28;37751;-75
2023/04/18 07:40:38;;;;;;;11.70;8.77;;;9.40;99.90;;;;;;4981978;28;38029;-75
2023/04/18 07:43:04;;;;;;;11.27;8.00;;;9.40;99.90;;;;;;4980216;28;36960;-75
2023/04/18 07:45:32;;;;;;;11.45;8.38;;;9.40;99.90;;;;;;4979982;28;39648;-75
2023/04/18 07:47:58;;;;;;;13.45;8.65;;;9.40;99.90;;;;;;4982300;28;37283;-75
2023/04/18 07:50:24;;;;;;;10.65;9.05;;;9.30;99.90;;;;;;4992932;28;37665;-76
2023/04/18 07:52:50;;;;;;;18.45;10.52;;;9.30;99.90;;;;;;4979070;28;37090;-75
2023/04/18 07:55:17;;;;;;;10.95;8.55;;;9.20;99.90;;;;;;4972789;28;38820;-75
2023/04/18 07:57:43;;;;;;;12.60;9.40;;;9.20;99.90;;;;;;4983380;28;38595;-75
2023/04/18 08:00:11;;;;;;;13.95;9.52;;;9.20;99.90;;;;;;4983624;28;39241;-75
2023/04/18 08:02:37;;;;;;;10.02;8.07;;;9.10;99.90;;;;;;4984042;28;35886;-78
2023/04/18 08:05:03;;;;;;;12.07;8.82;;;9.20;99.90;;;;;;4984389;28;36583;-78
2023/04/18 08:07:29;;;;;;;13.90;9.70;;;9.40;99.90;;;;;;4987926;28;48640;-78
2023/04/18 08:09:55;;;;;;;12.17;8.87;;;9.30;99.90;;;;;;4979406;28;37076;-78
2023/04/18 08:12:21;;;;;;;19.63;8.80;;;9.20;99.90;;;;;;4986823;28;36884;-78
2023/04/18 08:14:48;;;;;;;14.17;9.17;;;9.10;99.90;;;;;;4986676;28;40237;-79
2023/04/18 08:17:14;;;;;;;14.80;9.47;;;9.10;99.90;;;;;;4987321;28;37589;-79
2023/04/18 08:19:40;;;;;;;14.63;9.60;;;9.10;99.90;;;;;;4986020;28;38483;-79
2023/04/18 08:22:10;;;;;;;13.60;9.40;;;9.10;99.90;;;;;;5002208;28;36934;-78
2023/04/18 08:24:37;;;;;;;14.07;9.67;;;9.20;99.90;;;;;;4985640;28;38245;-79
2023/04/18 08:27:04;;;;;;;13.13;9.40;;;9.30;99.90;;;;;;4982796;28;39149;-79
2023/04/18 08:29:30;;;;;;;16.10;8.98;;;9.40;99.90;;;;;;4985187;28;37122;-79
2023/04/18 08:31:56;;;;;;;18.33;9.37;;;9.70;99.90;;;;;;4993492;28;37600;-78
2023/04/18 08:34:23;;;;;;;11.90;9.05;;;9.90;99.90;;;;;;4985647;28;38743;-78
2023/04/18 08:36:50;;;;;;;12.95;8.77;;;10.20;99.90;;;;;;4988490;28;38316;-79
2023/04/18 08:39:16;;;;;;;15.75;9.85;;;10.30;99.90;;;;;;4987499;28;38302;-79
2023/04/18 08:41:48;;;;;;;11.75;8.70;;;10.40;99.90;;;;;;4989576;28;37631;-79
2023/04/18 08:44:14;;;;;;;12.57;8.27;;;10.30;99.90;;;;;;4989257;28;38258;-79
2023/04/18 08:46:40;;;;;;;13.48;9.30;;;10.20;99.90;;;;;;4993193;28;38170;-78
2023/04/18 08:49:07;;;;;;;12.45;8.88;;;10.10;99.90;;;;;;4991044;28;37138;-79
2023/04/18 08:51:33;;;;;;;13.63;9.50;;;10.10;99.90;;;;;;4981517;28;36302;-78
2023/04/18 08:54:03;;;;;;;13.65;9.50;;;10.10;99.90;;;;;;5005036;28;37564;-79
2023/04/18 08:56:30;;;;;;;13.48;9.25;;;9.90;99.90;;;;;;4979584;28;47368;-77
2023/04/18 08:58:59;;;;;;;11.07;9.07;;;9.90;99.90;;;;;;4989571;28;37678;-76
2023/04/18 09:01:48;;;;;;;14.65;9.70;;;10.00;99.90;;;;;;4984174;28;38660;-78
2023/04/18 09:04:30;;;;;;;11.65;8.55;;;10.50;99.90;;;;;;4986345;28;38000;-78
2023/04/18 09:06:56;;;;;;;14.25;8.63;;;11.10;99.90;;;;;;4980947;28;39471;-79
2023/04/18 09:09:26;;;;;;;12.82;8.15;;;11.60;99.90;;;;;;4989600;28;36847;-79
2023/04/18 09:12:09;;;;;;;12.65;8.48;;;11.50;99.90;;;;;;4986377;28;37483;-78
2023/04/18 09:14:36;;;;;;;10.30;8.23;;;11.00;99.90;;;;;;4984645;28;47440;-79
2023/04/18 09:17:05;;;;;;;11.88;8.52;;;10.90;99.90;;;;;;4987153;28;37259;-79
2023/04/18 09:19:32;;;;;;;11.75;9.23;;;10.60;99.90;;;;;;4993492;28;38090;-79
2023/04/18 09:22:01;;;;;;;12.93;7.95;;;10.90;99.90;;;;;;4992711;28;36069;-79
2023/04/18 09:24:28;;;;;;;11.07;8.57;;;11.30;99.90;;;;;;4986508;28;48560;-79
2023/04/18 09:27:00;;;;;;;14.73;9.48;;;11.70;99.90;;;;;;4990607;28;38344;-79
2023/04/18 09:29:45;;;;;;;10.63;8.07;;;11.40;99.90;;;;;;4988447;28;38398;-79
2023/04/18 09:32:27;;;;;;;10.90;7.95;;;11.30;99.90;;;;;;4982552;28;37362;-78
2023/04/18 09:35:00;;;;;;;11.75;8.50;;;11.50;99.90;;;;;;4986789;28;39125;-78
2023/04/18 09:37:27;;;;;;;16.05;8.32;;;11.30;99.90;;;;;;4986174;28;38175;-78
2023/04/18 09:39:54;;;;;;;10.80;7.75;;;11.30;99.90;;;;;;4987553;28;38484;-79
2023/04/18 09:42:21;;;;;;;11.07;7.75;;;11.20;99.90;;;;;;5004430;28;36801;-78
2023/04/18 09:45:05;;;;;;;11.73;7.65;;;11.20;99.90;;;;;;4999555;28;39067;-78
2023/04/18 09:47:33;;;;;;;9.80;7.25;;;11.70;99.90;;;;;;4977713;28;47027;-78
2023/04/18 09:50:08;;;;;;;13.43;8.07;;;11.90;99.90;;;;;;4984245;28;38589;-78
2023/04/18 09:52:36;;;;;;;10.82;7.43;;;12.10;99.90;;;;;;4976571;28;47118;-78
2023/04/18 09:55:04;;;;;;;9.88;7.90;;;12.20;99.90;;;;;;4974968;28;38424;-78
2023/04/18 09:57:33;;;;;;;10.18;7.40;;;12.20;99.90;;;;;;4982116;28;48737;-78
2023/04/18 10:00:28;;;;;;;11.25;7.78;;;12.40;99.90;;;;;;4993872;28;37166;-78
2023/04/18 10:03:01;;;;;;;9.68;7.22;;;12.70;99.90;;;;;;4987307;28;47257;-79
2023/04/18 10:05:33;;;;;;;15.95;7.65;;;13.00;99.90;;;;;;4983952;28;46908;-78
2023/04/18 10:07:59;;;;;;;14.77;7.50;;;13.20;99.90;;;;;;4999610;28;38241;-78
2023/04/18 10:10:28;;;;;;;7.55;6.60;;;13.00;99.90;;;;;;4988817;28;38009;-78
2023/04/18 10:12:56;;;;;;;10.73;7.35;;;12.70;99.90;;;;;;4988437;28;36066;-78
2023/04/18 10:15:25;;;;;;;9.75;7.22;;;12.80;99.90;;;;;;4989305;28;39681;-79
2023/04/18 10:17:57;;;;;;;9.65;7.15;;;12.40;99.90;;;;;;4982301;28;37270;-79
2023/04/18 10:20:26;;;;;;;9.65;7.25;;;12.30;99.90;;;;;;4994200;28;37514;-79
2023/04/18 10:22:53;;;;;;;9.40;7.35;;;12.20;99.90;;;;;;4993211;28;37047;-78
2023/04/18 10:25:37;;;;;;;8.82;7.13;;;12.20;99.90;;;;;;4979155;28;37784;-78
2023/04/18 10:28:09;;;;;;;9.93;7.10;;;12.40;99.90;;;;;;4992077;28;38001;-79
2023/04/18 10:30:43;;;;;;;;;;;12.70;99.90;;;;;;4981784;28;38982;-79
2023/04/18 10:33:21;;;;;;;10.35;7.30;;;12.60;99.90;;;;;;4986693;28;36331;-78
2023/04/18 10:36:02;;;;;;;11.65;7.30;;;12.40;99.90;;;;;;4995099;28;39229;-78
2023/04/18 10:38:28;;;;;;;9.73;7.45;;;12.50;99.90;;;;;;4983554;28;47161;-80
2023/04/18 10:41:13;;;;;;;8.38;6.82;;;12.50;99.90;;;;;;4983058;28;38358;-79
2023/04/18 10:44:07;;;;;;;9.32;7.18;;;12.90;99.90;;;;;;4979443;28;47330;-76
2023/04/18 10:46:51;;;;;;;7.45;6.35;;;13.00;99.90;;;;;;4976899;28;47759;-78
2023/04/18 10:49:20;;;;;;;10.23;7.13;;;12.70;99.90;;;;;;4984063;28;37263;-77
2023/04/18 10:51:51;;;;;;;12.68;7.15;;;12.60;99.90;;;;;;4980286;28;38427;-78
2023/04/18 10:54:45;;;;;;;8.43;7.00;;;12.90;99.90;;;;;;4986146;28;36080;-77
2023/04/18 10:57:12;;;;;;;10.13;6.82;;;13.00;99.90;;;;;;4984062;28;38055;-78
2023/04/18 10:59:43;;;;;;;10.52;7.45;;;12.90;99.90;;;;;;4977706;28;38722;-78
2023/04/18 11:02:21;;;;;;;13.20;7.43;;;12.90;99.90;;;;;;4976869;28;38821;-78
2023/04/18 11:04:50;;;;;;;12.75;7.78;;;13.60;99.90;;;;;;4984622;28;37076;-77
2023/04/18 11:07:16;;;;;;;11.88;6.28;;;13.40;99.90;;;;;;4988432;28;38478;-78
2023/04/18 11:09:53;;;;;;;7.13;6.43;;;13.30;99.90;;;;;;4986487;28;38870;-78
2023/04/18 11:12:20;;;;;;;10.48;6.68;;;13.20;99.90;;;;;;4963653;28;38313;-77
2023/04/18 11:14:49;;;;;;;8.70;6.60;;;13.00;99.90;;;;;;4973229;28;38214;-76
2023/04/18 11:17:25;;;;;;;9.57;6.03;;;12.90;99.90;;;;;;4983031;28;36492;-76
2023/04/18 11:20:18;;;;;;;8.18;5.82;;;12.90;99.90;;;;;;4977922;28;39092;-76
2023/04/18 11:22:47;;;;;;;7.70;6.28;;;13.10;99.90;;;;;;4976772;28;48794;-77
2023/04/18 11:25:15;;;;;;;11.05;6.00;;;13.30;99.90;;;;;;4981899;28;37631;-76
2023/04/18 11:27:42;;;;;;;7.93;6.15;;;13.30;99.90;;;;;;4996111;28;37975;-77
2023/04/18 11:30:10;;;;;;;9.85;5.85;;;13.20;99.90;;;;;;4985092;28;38350;-77
2023/04/18 11:32:36;;;;;;;6.15;4.45;;;13.60;99.90;;;;;;4979399;28;38200;-77
2023/04/18 11:35:02;;;;;;;7.43;4.82;;;13.90;99.90;;;;;;4975580;28;37811;-75
2023/04/18 11:37:28;;;;;;;6.68;5.03;;;13.60;99.90;;;;;;4979134;28;47811;-75
2023/04/18 11:39:56;;;;;;;11.05;4.72;;;13.10;99.90;;;;;;4986707;28;38508;-76
2023/04/18 11:42:27;;;;;;;6.75;4.93;;;12.90;99.90;;;;;;4999926;28;37515;-76
2023/04/18 11:44:53;;;;;;;7.00;4.47;;;12.90;99.90;;;;;;4982937;28;35993;-76
2023/04/18 11:47:30;;;;;;;5.97;3.88;;;12.80;99.90;;;;;;4985084;28;38899;-78
2023/04/18 11:50:05;;;;;;;3.85;3.25;;;12.80;99.90;;;;;;4983112;28;39061;-78
2023/04/18 11:52:32;;;;;;;2.97;2.67;;;12.80;99.90;;;;;;4982844;28;46711;-77
2023/04/18 11:55:22;;;;;;;3.15;2.63;;;13.30;99.90;;;;;;4987991;28;36540;-76
2023/04/18 11:57:56;;;;;;;4.25;2.50;;;13.60;99.90;;;;;;4981908;28;47530;-77
2023/04/18 12:00:34;;;;;;;4.47;2.60;;;13.80;99.90;;;;;;4982386;28;37669;-77
2023/04/18 12:03:04;;;;;;;7.07;2.55;;;13.20;99.90;;;;;;4986551;28;37918;-77
2023/04/18 12:05:32;;;;;;;2.60;2.10;;;12.90;99.90;;;;;;4985185;28;50025;-77
2023/04/18 12:08:12;;;;;;;8.32;2.28;;;12.90;99.90;;;;;;4992700;28;39982;-76
2023/04/18 12:11:04;;;;;;;2.55;2.08;;;13.10;99.90;;;;;;4982744;28;47041;-77
2023/04/18 12:13:31;;;;;;;2.47;2.13;;;13.30;99.90;;;;;;4979748;28;47137;-77
2023/04/18 12:16:00;;;;;;;2.05;1.85;;;13.60;99.90;;;;;;4994548;28;37337;-78
2023/04/18 12:18:27;;;;;;;4.63;2.50;;;13.80;99.90;;;;;;4996847;28;39823;-78
2023/04/18 12:20:53;;;;;;;4.15;2.45;;;13.90;99.90;;;;;;4987275;28;37068;-78
2023/04/18 12:23:41;;;;;;;3.65;3.00;;;13.50;99.90;;;;;;4996978;28;37670;-79
2023/04/18 12:26:12;;;;;;;5.30;3.22;;;13.60;99.90;;;;;;4986229;28;37483;-77
2023/04/18 12:28:38;;;;;;;3.55;2.85;;;13.30;99.90;;;;;;4984564;28;38536;-78
2023/04/18 12:31:06;;;;;;;4.00;3.00;;;13.10;99.90;;;;;;4979616;28;38091;-78
2023/04/18 12:33:32;;;;;;;3.28;2.65;;;13.20;99.90;;;;;;4974666;28;38649;-78
2023/04/18 12:35:59;;;;;;;4.53;2.85;;;13.10;99.90;;;;;;4974876;28;37930;-77
2023/04/18 12:38:25;;;;;;;4.35;3.40;;;13.20;99.90;;;;;;4982924;28;39254;-79
2023/04/18 12:40:52;;;;;;;3.38;2.97;;;12.90;99.90;;;;;;4997119;28;38619;-79
2023/04/18 12:43:18;;;;;;;7.95;2.92;;;12.90;99.90;;;;;;4981735;28;37788;-79
2023/04/18 12:45:46;;;;;;;4.25;3.20;;;13.00;99.90;;;;;;4977471;28;36257;-76